Terminal Aerodrome Forecast
Issued by NWS

Home | Current Version | Previous Version | Graphics & Text | Print | Product List | Glossary On
Versions: 1 2 3 4 5 6 7 8 9 10 11 12 13 14 15 16 17 18 19 20 21 22 23 24 25 26 27 28
438
FTUS43 KABR 261120
TAFATY
TAF
KATY 261120Z 2612/2712 VRB05KT P6SM FEW006 OVC021
      TEMPO 2612/2615 5SM -DZ BR BKN006
     FM261500 06010KT P6SM OVC008
     FM261900 07013KT P6SM BKN015
     FM270000 07017KT P6SM VCSH OVC020=

USA.gov is the U.S. government's official web portal to all federal, state and local government web resources and services.